sensor_id;sensor_type;location;lat;lon;timestamp;pressure;altitude;pressure_sealevel;temperature;humidity
60725;BME280;59881;36.722;-4.462;2023-04-28T00:00:48;100676.28;;;17.85;59.48
60725;BME280;59881;36.722;-4.462;2023-04-28T00:03:14;100660.63;;;17.72;59.29
60725;BME280;59881;36.722;-4.462;2023-04-28T00:05:40;100748.75;;;18.16;59.31
60725;BME280;59881;36.722;-4.462;2023-04-28T00:08:06;100814.41;;;18.45;59.43
60725;BME280;59881;36.722;-4.462;2023-04-28T00:10:32;100538.75;;;16.83;59.43
60725;BME280;59881;36.722;-4.462;2023-04-28T00:12:57;100646.44;;;17.53;59.45
60725;BME280;59881;36.722;-4.462;2023-04-28T00:15:23;100793.53;;;18.40;59.55
60725;BME280;59881;36.722;-4.462;2023-04-28T00:17:49;100705.00;;;17.81;59.55
60725;BME280;59881;36.722;-4.462;2023-04-28T00:20:14;100751.03;;;18.11;59.63
60725;BME280;59881;36.722;-4.462;2023-04-28T00:22:40;100794.63;;;18.37;59.40
60725;BME280;59881;36.722;-4.462;2023-04-28T00:25:06;100785.66;;;18.38;59.73
60725;BME280;59881;36.722;-4.462;2023-04-28T00:27:33;100793.66;;;18.38;59.64
60725;BME280;59881;36.722;-4.462;2023-04-28T00:29:58;100753.91;;;18.17;59.60
60725;BME280;59881;36.722;-4.462;2023-04-28T00:32:24;100723.88;;;17.97;59.50
60725;BME280;59881;36.722;-4.462;2023-04-28T00:34:50;100795.03;;;18.43;59.64
60725;BME280;59881;36.722;-4.462;2023-04-28T00:37:16;100676.59;;;17.72;59.33
60725;BME280;59881;36.722;-4.462;2023-04-28T00:39:41;100679.66;;;17.77;59.48
60725;BME280;59881;36.722;-4.462;2023-04-28T00:42:11;100680.78;;;17.74;59.22
60725;BME280;59881;36.722;-4.462;2023-04-28T00:44:37;100765.69;;;18.25;59.39
60725;BME280;59881;36.722;-4.462;2023-04-28T00:47:03;100649.63;;;17.57;59.20
60725;BME280;59881;36.722;-4.462;2023-04-28T00:49:30;100716.34;;;17.93;59.28
60725;BME280;59881;36.722;-4.462;2023-04-28T00:51:56;100591.84;;;17.12;59.40
60725;BME280;59881;36.722;-4.462;2023-04-28T00:54:22;100792.84;;;18.38;59.28
60725;BME280;59881;36.722;-4.462;2023-04-28T00:56:48;100786.50;;;18.39;59.58
60725;BME280;59881;36.722;-4.462;2023-04-28T00:59:13;100783.00;;;18.38;59.46
60725;BME280;59881;36.722;-4.462;2023-04-28T01:01:39;100784.66;;;18.39;59.40
60725;BME280;59881;36.722;-4.462;2023-04-28T01:04:05;100710.88;;;17.94;59.35
60725;BME280;59881;36.722;-4.462;2023-04-28T01:06:31;100782.69;;;18.41;59.30
60725;BME280;59881;36.722;-4.462;2023-04-28T01:08:57;100742.84;;;18.22;59.24
60725;BME280;59881;36.722;-4.462;2023-04-28T01:11:23;100729.69;;;18.11;59.25
60725;BME280;59881;36.722;-4.462;2023-04-28T01:13:48;100793.75;;;18.47;59.25
60725;BME280;59881;36.722;-4.462;2023-04-28T01:16:14;100772.69;;;18.44;59.24
60725;BME280;59881;36.722;-4.462;2023-04-28T01:18:46;100771.41;;;18.48;59.00
60725;BME280;59881;36.722;-4.462;2023-04-28T01:21:12;100739.25;;;18.31;59.25
60725;BME280;59881;36.722;-4.462;2023-04-28T01:23:38;100655.53;;;17.78;59.19
60725;BME280;59881;36.722;-4.462;2023-04-28T01:26:03;100589.31;;;17.38;59.33
60725;BME280;59881;36.722;-4.462;2023-04-28T01:28:29;100602.72;;;17.46;59.31
60725;BME280;59881;36.722;-4.462;2023-04-28T01:30:55;100777.66;;;18.38;59.53
60725;BME280;59881;36.722;-4.462;2023-04-28T01:33:21;100611.69;;;17.45;59.27
60725;BME280;59881;36.722;-4.462;2023-04-28T01:35:46;100758.63;;;18.33;59.37
60725;BME280;59881;36.722;-4.462;2023-04-28T01:38:12;100755.09;;;18.33;59.19
60725;BME280;59881;36.722;-4.462;2023-04-28T01:40:37;100752.59;;;18.31;59.16
60725;BME280;59881;36.722;-4.462;2023-04-28T01:43:03;100748.91;;;18.32;59.35
60725;BME280;59881;36.722;-4.462;2023-04-28T01:45:28;100736.88;;;18.28;59.17
60725;BME280;59881;36.722;-4.462;2023-04-28T01:47:54;100616.00;;;17.56;59.03
60725;BME280;59881;36.722;-4.462;2023-04-28T01:50:20;100732.22;;;18.30;59.12
60725;BME280;59881;36.722;-4.462;2023-04-28T01:52:45;100630.44;;;17.53;59.13
60725;BME280;59881;36.722;-4.462;2023-04-28T01:55:11;100741.97;;;18.39;59.02
60725;BME280;59881;36.722;-4.462;2023-04-28T01:57:36;100737.28;;;18.33;58.92
60725;BME280;59881;36.722;-4.462;2023-04-28T02:00:02;100738.63;;;18.37;59.18
60725;BME280;59881;36.722;-4.462;2023-04-28T02:02:29;100705.78;;;18.19;58.97
60725;BME280;59881;36.722;-4.462;2023-04-28T02:04:55;100733.16;;;18.39;59.12
60725;BME280;59881;36.722;-4.462;2023-04-28T02:07:22;100733.00;;;18.40;59.30
60725;BME280;59881;36.722;-4.462;2023-04-28T02:09:48;100680.88;;;18.10;59.22
60725;BME280;59881;36.722;-4.462;2023-04-28T02:12:13;100730.84;;;18.44;59.20
60725;BME280;59881;36.722;-4.462;2023-04-28T02:14:39;100729.06;;;18.45;59.37
60725;BME280;59881;36.722;-4.462;2023-04-28T02:17:04;100652.69;;;17.90;59.25
60725;BME280;59881;36.722;-4.462;2023-04-28T02:19:30;100673.56;;;18.12;59.24
60725;BME280;59881;36.722;-4.462;2023-04-28T02:21:56;100546.16;;;17.34;59.29
60725;BME280;59881;36.722;-4.462;2023-04-28T02:24:21;100693.53;;;18.26;58.95
60725;BME280;59881;36.722;-4.462;2023-04-28T02:26:47;100716.31;;;18.38;59.09
60725;BME280;59881;36.722;-4.462;2023-04-28T02:29:13;100709.59;;;18.34;58.85
60725;BME280;59881;36.722;-4.462;2023-04-28T02:31:38;100705.34;;;18.24;59.13
60725;BME280;59881;36.722;-4.462;2023-04-28T02:34:04;100698.78;;;18.18;59.20
60725;BME280;59881;36.722;-4.462;2023-04-28T02:36:29;100721.88;;;18.27;59.40
60725;BME280;59881;36.722;-4.462;2023-04-28T02:38:56;100710.38;;;18.27;59.25
60725;BME280;59881;36.722;-4.462;2023-04-28T02:41:22;100654.66;;;17.88;59.23
60725;BME280;59881;36.722;-4.462;2023-04-28T02:43:47;100551.97;;;17.20;59.47
60725;BME280;59881;36.722;-4.462;2023-04-28T02:46:13;100714.63;;;18.19;59.49
60725;BME280;59881;36.722;-4.462;2023-04-28T02:48:38;100607.91;;;17.48;59.49
60725;BME280;59881;36.722;-4.462;2023-04-28T02:51:05;100599.66;;;17.41;59.58
60725;BME280;59881;36.722;-4.462;2023-04-28T02:53:30;100608.94;;;17.37;59.55
60725;BME280;59881;36.722;-4.462;2023-04-28T02:55:56;100704.34;;;18.07;59.64
60725;BME280;59881;36.722;-4.462;2023-04-28T02:58:21;100687.56;;;17.96;59.61
60725;BME280;59881;36.722;-4.462;2023-04-28T03:00:47;100516.56;;;16.92;59.38
60725;BME280;59881;36.722;-4.462;2023-04-28T03:03:12;100720.13;;;18.18;59.47
60725;BME280;59881;36.722;-4.462;2023-04-28T03:05:38;100725.75;;;18.15;59.54
60725;BME280;59881;36.722;-4.462;2023-04-28T03:08:03;100640.22;;;17.63;59.50
60725;BME280;59881;36.722;-4.462;2023-04-28T03:10:29;100740.53;;;18.09;59.54
60725;BME280;59881;36.722;-4.462;2023-04-28T03:12:55;100714.00;;;18.08;59.83
60725;BME280;59881;36.722;-4.462;2023-04-28T03:15:20;100738.00;;;18.08;59.60
60725;BME280;59881;36.722;-4.462;2023-04-28T03:17:46;100733.22;;;18.11;59.46
60725;BME280;59881;36.722;-4.462;2023-04-28T03:20:11;100689.69;;;17.93;59.47
60725;BME280;59881;36.722;-4.462;2023-04-28T03:22:37;100715.69;;;18.09;59.42
60725;BME280;59881;36.722;-4.462;2023-04-28T03:25:03;100594.78;;;17.36;59.59
60725;BME280;59881;36.722;-4.462;2023-04-28T03:27:29;100723.84;;;18.07;59.24
60725;BME280;59881;36.722;-4.462;2023-04-28T03:29:55;100731.00;;;18.07;59.53
60725;BME280;59881;36.722;-4.462;2023-04-28T03:32:21;100634.22;;;17.51;59.64
60725;BME280;59881;36.722;-4.462;2023-04-28T03:34:46;100719.72;;;18.13;59.59
60725;BME280;59881;36.722;-4.462;2023-04-28T03:37:12;100511.28;;;16.82;59.47
60725;BME280;59881;36.722;-4.462;2023-04-28T03:39:38;100717.38;;;18.10;59.52
60725;BME280;59881;36.722;-4.462;2023-04-28T03:42:03;100685.34;;;17.92;59.68
60725;BME280;59881;36.722;-4.462;2023-04-28T03:44:29;100700.34;;;17.93;59.58
60725;BME280;59881;36.722;-4.462;2023-04-28T03:46:54;100685.97;;;17.76;59.58
60725;BME280;59881;36.722;-4.462;2023-04-28T03:49:20;100626.59;;;17.38;59.71
60725;BME280;59881;36.722;-4.462;2023-04-28T03:51:45;100720.75;;;18.02;59.68
60725;BME280;59881;36.722;-4.462;2023-04-28T03:54:12;100727.94;;;18.02;59.87
60725;BME280;59881;36.722;-4.462;2023-04-28T03:56:37;100676.88;;;17.69;59.36
60725;BME280;59881;36.722;-4.462;2023-04-28T03:59:03;100718.25;;;18.01;59.47
60725;BME280;59881;36.722;-4.462;2023-04-28T04:01:28;100711.25;;;17.99;59.50
60725;BME280;59881;36.722;-4.462;2023-04-28T04:03:54;100632.59;;;17.40;59.49
60725;BME280;59881;36.722;-4.462;2023-04-28T04:06:20;100718.25;;;18.01;59.42
60725;BME280;59881;36.722;-4.462;2023-04-28T04:08:46;100660.25;;;17.67;59.34
60725;BME280;59881;36.722;-4.462;2023-04-28T04:11:12;100715.59;;;18.01;59.55
60725;BME280;59881;36.722;-4.462;2023-04-28T04:13:37;100704.09;;;18.00;59.54
60725;BME280;59881;36.722;-4.462;2023-04-28T04:16:03;100702.41;;;17.99;59.50
60725;BME280;59881;36.722;-4.462;2023-04-28T04:18:29;100486.97;;;16.67;59.46
60725;BME280;59881;36.722;-4.462;2023-04-28T04:20:54;100689.91;;;17.99;59.54
60725;BME280;59881;36.722;-4.462;2023-04-28T04:23:21;100711.25;;;17.99;59.51
60725;BME280;59881;36.722;-4.462;2023-04-28T04:25:47;100684.91;;;17.96;59.37
60725;BME280;59881;36.722;-4.462;2023-04-28T04:28:13;100560.63;;;17.32;59.29
60725;BME280;59881;36.722;-4.462;2023-04-28T04:30:39;100693.59;;;18.16;59.14
60725;BME280;59881;36.722;-4.462;2023-04-28T04:33:04;100665.78;;;18.01;58.96
60725;BME280;59881;36.722;-4.462;2023-04-28T04:35:30;100669.50;;;17.90;59.15
60725;BME280;59881;36.722;-4.462;2023-04-28T04:37:56;100690.09;;;18.16;59.20
60725;BME280;59881;36.722;-4.462;2023-04-28T04:40:21;100687.03;;;18.11;59.21
60725;BME280;59881;36.722;-4.462;2023-04-28T04:42:47;100687.66;;;18.05;59.14
60725;BME280;59881;36.722;-4.462;2023-04-28T04:45:12;100086.66;;;14.24;59.16
60725;BME280;59881;36.722;-4.462;2023-04-28T04:47:39;100690.97;;;17.89;59.61
60725;BME280;59881;36.722;-4.462;2023-04-28T04:50:05;100701.72;;;17.97;59.34
60725;BME280;59881;36.722;-4.462;2023-04-28T04:52:31;100705.91;;;17.99;59.11
60725;BME280;59881;36.722;-4.462;2023-04-28T04:54:56;100716.44;;;18.01;58.71
60725;BME280;59881;36.722;-4.462;2023-04-28T04:57:22;100571.06;;;17.15;58.57
60725;BME280;59881;36.722;-4.462;2023-04-28T04:59:47;100711.47;;;18.06;58.22
60725;BME280;59881;36.722;-4.462;2023-04-28T05:02:13;100711.88;;;18.11;57.94
60725;BME280;59881;36.722;-4.462;2023-04-28T05:04:38;100542.84;;;17.05;57.73
60725;BME280;59881;36.722;-4.462;2023-04-28T05:07:04;100714.69;;;18.10;57.97
60725;BME280;59881;36.722;-4.462;2023-04-28T05:09:29;100699.28;;;18.04;57.70
60725;BME280;59881;36.722;-4.462;2023-04-28T05:11:56;100705.88;;;18.09;57.70
60725;BME280;59881;36.722;-4.462;2023-04-28T05:14:22;100693.81;;;17.87;57.77
60725;BME280;59881;36.722;-4.462;2023-04-28T05:16:48;100661.81;;;17.77;57.84
60725;BME280;59881;36.722;-4.462;2023-04-28T05:19:13;100711.34;;;18.08;57.80
60725;BME280;59881;36.722;-4.462;2023-04-28T05:21:39;100556.09;;;17.14;57.97
60725;BME280;59881;36.722;-4.462;2023-04-28T05:24:05;100557.47;;;17.19;57.91
60725;BME280;59881;36.722;-4.462;2023-04-28T05:26:30;100632.16;;;17.72;57.63
60725;BME280;59881;36.722;-4.462;2023-04-28T05:28:56;100701.53;;;18.26;57.61
60725;BME280;59881;36.722;-4.462;2023-04-28T05:31:21;100591.47;;;17.52;57.15
60725;BME280;59881;36.722;-4.462;2023-04-28T05:33:47;100593.00;;;17.73;57.11
60725;BME280;59881;36.722;-4.462;2023-04-28T05:36:12;100634.41;;;17.95;56.83
60725;BME280;59881;36.722;-4.462;2023-04-28T05:38:41;100703.66;;;18.40;56.88
60725;BME280;59881;36.722;-4.462;2023-04-28T05:41:06;100532.94;;;17.43;56.60
60725;BME280;59881;36.722;-4.462;2023-04-28T05:43:32;100699.28;;;18.57;56.30
60725;BME280;59881;36.722;-4.462;2023-04-28T05:45:57;100702.88;;;18.66;56.21
60725;BME280;59881;36.722;-4.462;2023-04-28T05:48:23;100678.81;;;18.58;55.91
60725;BME280;59881;36.722;-4.462;2023-04-28T05:50:48;100702.22;;;18.82;55.47
60725;BME280;59881;36.722;-4.462;2023-04-28T05:53:14;100670.25;;;18.72;55.19
60725;BME280;59881;36.722;-4.462;2023-04-28T05:55:39;100708.81;;;18.96;54.91
60725;BME280;59881;36.722;-4.462;2023-04-28T05:58:05;100704.88;;;19.08;54.78
60725;BME280;59881;36.722;-4.462;2023-04-28T06:00:31;100709.31;;;19.26;54.41
60725;BME280;59881;36.722;-4.462;2023-04-28T06:02:57;100719.63;;;19.47;54.18
60725;BME280;59881;36.722;-4.462;2023-04-28T06:05:22;100723.47;;;19.78;53.31
60725;BME280;59881;36.722;-4.462;2023-04-28T06:07:48;100679.94;;;20.02;52.15
60725;BME280;59881;36.722;-4.462;2023-04-28T06:10:14;100533.84;;;19.69;51.00
60725;BME280;59881;36.722;-4.462;2023-04-28T06:12:39;100654.72;;;20.87;49.26
60725;BME280;59881;36.722;-4.462;2023-04-28T06:15:05;100724.78;;;21.87;48.38
60725;BME280;59881;36.722;-4.462;2023-04-28T06:17:31;100648.38;;;21.83;47.09
60725;BME280;59881;36.722;-4.462;2023-04-28T06:19:58;100727.78;;;22.47;46.45
60725;BME280;59881;36.722;-4.462;2023-04-28T06:22:24;100731.31;;;22.47;45.90
60725;BME280;59881;36.722;-4.462;2023-04-28T06:24:50;100663.16;;;21.79;46.01
60725;BME280;59881;36.722;-4.462;2023-04-28T06:27:15;100723.47;;;21.83;46.51
60725;BME280;59881;36.722;-4.462;2023-04-28T06:29:41;100723.03;;;21.63;46.82
60725;BME280;59881;36.722;-4.462;2023-04-28T06:32:06;100606.72;;;20.77;46.46
60725;BME280;59881;36.722;-4.462;2023-04-28T06:34:33;100447.34;;;19.70;46.39
60725;BME280;59881;36.722;-4.462;2023-04-28T06:36:59;100666.25;;;21.12;46.07
60725;BME280;59881;36.722;-4.462;2023-04-28T06:39:25;100684.78;;;21.30;46.06
60725;BME280;59881;36.722;-4.462;2023-04-28T06:41:51;100590.00;;;20.83;45.65
60725;BME280;59881;36.722;-4.462;2023-04-28T06:46:42;100741.66;;;21.96;45.37
60725;BME280;59881;36.722;-4.462;2023-04-28T06:49:07;100727.78;;;22.24;45.18
60725;BME280;59881;36.722;-4.462;2023-04-28T06:51:33;100710.50;;;22.49;44.73
60725;BME280;59881;36.722;-4.462;2023-04-28T06:53:59;100521.91;;;21.95;43.92
60725;BME280;59881;36.722;-4.462;2023-04-28T06:56:25;100688.56;;;24.03;42.02
60725;BME280;59881;36.722;-4.462;2023-04-28T06:58:54;100701.25;;;25.02;40.29
60725;BME280;59881;36.722;-4.462;2023-04-28T07:01:20;100712.66;;;25.67;40.43
60725;BME280;59881;36.722;-4.462;2023-04-28T07:03:46;100521.78;;;24.72;38.68
60725;BME280;59881;36.722;-4.462;2023-04-28T07:06:12;100562.28;;;25.21;38.59
60725;BME280;59881;36.722;-4.462;2023-04-28T07:08:38;100727.81;;;26.22;38.19
60725;BME280;59881;36.722;-4.462;2023-04-28T07:11:04;100652.63;;;26.06;37.56
60725;BME280;59881;36.722;-4.462;2023-04-28T07:13:31;100690.28;;;26.81;37.22
60725;BME280;59881;36.722;-4.462;2023-04-28T07:15:56;100726.25;;;27.21;36.80
60725;BME280;59881;36.722;-4.462;2023-04-28T07:18:22;100732.91;;;26.92;36.85
60725;BME280;59881;36.722;-4.462;2023-04-28T07:20:48;100736.59;;;26.51;37.33
60725;BME280;59881;36.722;-4.462;2023-04-28T07:23:13;100763.94;;;26.08;38.21
60725;BME280;59881;36.722;-4.462;2023-04-28T07:25:39;100749.19;;;25.69;39.00
60725;BME280;59881;36.722;-4.462;2023-04-28T07:28:06;100757.22;;;25.56;39.65
60725;BME280;59881;36.722;-4.462;2023-04-28T07:30:32;100751.41;;;25.94;39.13
60725;BME280;59881;36.722;-4.462;2023-04-28T07:32:58;100738.59;;;26.16;38.69
60725;BME280;59881;36.722;-4.462;2023-04-28T07:35:24;100632.84;;;25.99;38.05
60725;BME280;59881;36.722;-4.462;2023-04-28T07:37:50;100743.03;;;28.09;36.04
60725;BME280;59881;36.722;-4.462;2023-04-28T07:40:16;100734.16;;;30.07;32.52
60725;BME280;59881;36.722;-4.462;2023-04-28T07:42:42;100737.59;;;31.86;29.88
60725;BME280;59881;36.722;-4.462;2023-04-28T07:45:08;100748.00;;;33.31;27.99
60725;BME280;59881;36.722;-4.462;2023-04-28T07:47:33;100724.69;;;34.12;26.21
60725;BME280;59881;36.722;-4.462;2023-04-28T07:50:00;100743.09;;;34.49;25.78
60725;BME280;59881;36.722;-4.462;2023-04-28T07:52:30;100613.66;;;33.07;26.19
60725;BME280;59881;36.722;-4.462;2023-04-28T07:54:56;100656.75;;;33.49;26.11
60725;BME280;59881;36.722;-4.462;2023-04-28T07:57:21;100737.84;;;33.27;26.45
60725;BME280;59881;36.722;-4.462;2023-04-28T07:59:47;100754.50;;;32.57;27.11
60725;BME280;59881;36.722;-4.462;2023-04-28T08:02:12;100764.59;;;32.57;26.86
60725;BME280;59881;36.722;-4.462;2023-04-28T08:04:39;100657.09;;;32.92;25.99
60725;BME280;59881;36.722;-4.462;2023-04-28T08:07:05;100770.34;;;34.38;24.76
60725;BME280;59881;36.722;-4.462;2023-04-28T08:09:30;100629.50;;;34.04;24.01
60725;BME280;59881;36.722;-4.462;2023-04-28T08:11:56;100773.28;;;35.29;23.84
60725;BME280;59881;36.722;-4.462;2023-04-28T08:14:23;100743.13;;;35.23;23.13
60725;BME280;59881;36.722;-4.462;2023-04-28T08:16:49;100704.16;;;35.11;23.10
60725;BME280;59881;36.722;-4.462;2023-04-28T08:19:14;100769.88;;;36.27;22.20
60725;BME280;59881;36.722;-4.462;2023-04-28T08:21:40;100766.44;;;35.79;22.16
60725;BME280;59881;36.722;-4.462;2023-04-28T08:24:05;100783.56;;;35.54;22.64
60725;BME280;59881;36.722;-4.462;2023-04-28T08:26:32;100766.94;;;35.66;22.75
60725;BME280;59881;36.722;-4.462;2023-04-28T08:28:58;100743.97;;;35.82;22.49
60725;BME280;59881;36.722;-4.462;2023-04-28T08:31:23;100775.41;;;36.83;21.49
60725;BME280;59881;36.722;-4.462;2023-04-28T08:33:49;100780.22;;;37.68;20.91
60725;BME280;59881;36.722;-4.462;2023-04-28T08:36:16;100756.88;;;38.55;20.00
60725;BME280;59881;36.722;-4.462;2023-04-28T08:38:43;100775.13;;;39.09;20.92
60725;BME280;59881;36.722;-4.462;2023-04-28T08:41:09;100790.03;;;39.03;20.72
60725;BME280;59881;36.722;-4.462;2023-04-28T08:43:36;100806.72;;;38.04;21.44
60725;BME280;59881;36.722;-4.462;2023-04-28T08:46:06;100751.25;;;36.60;23.04
60725;BME280;59881;36.722;-4.462;2023-04-28T08:48:38;100754.84;;;36.76;20.76
60725;BME280;59881;36.722;-4.462;2023-04-28T08:51:05;100791.56;;;36.49;21.27
60725;BME280;59881;36.722;-4.462;2023-04-28T08:53:36;100788.84;;;36.95;21.55
60725;BME280;59881;36.722;-4.462;2023-04-28T08:56:04;100787.59;;;38.28;20.27
60725;BME280;59881;36.722;-4.462;2023-04-28T08:58:30;100778.69;;;39.10;19.76
60725;BME280;59881;36.722;-4.462;2023-04-28T09:00:56;100798.78;;;40.07;19.37
60725;BME280;59881;36.722;-4.462;2023-04-28T09:03:22;100807.81;;;40.31;18.79
60725;BME280;59881;36.722;-4.462;2023-04-28T09:05:47;100807.06;;;39.88;18.08
60725;BME280;59881;36.722;-4.462;2023-04-28T09:08:13;100745.81;;;38.89;18.63
60725;BME280;59881;36.722;-4.462;2023-04-28T09:10:39;100809.47;;;38.83;19.39
60725;BME280;59881;36.722;-4.462;2023-04-28T09:13:05;100817.09;;;37.37;20.65
60725;BME280;59881;36.722;-4.462;2023-04-28T09:15:32;100848.22;;;35.12;23.05
60725;BME280;59881;36.722;-4.462;2023-04-28T09:17:59;100705.88;;;32.37;24.85
60725;BME280;59881;36.722;-4.462;2023-04-28T09:20:26;100847.97;;;32.01;26.58
60725;BME280;59881;36.722;-4.462;2023-04-28T09:22:52;100850.16;;;31.51;27.32
60725;BME280;59881;36.722;-4.462;2023-04-28T09:25:19;100837.97;;;32.75;26.80
60725;BME280;59881;36.722;-4.462;2023-04-28T09:27:48;100844.16;;;34.11;25.34
60725;BME280;59881;36.722;-4.462;2023-04-28T09:30:15;100824.81;;;35.32;23.87
60725;BME280;59881;36.722;-4.462;2023-04-28T09:32:40;100866.53;;;36.65;23.04
60725;BME280;59881;36.722;-4.462;2023-04-28T09:35:06;100859.69;;;37.29;22.07
60725;BME280;59881;36.722;-4.462;2023-04-28T09:37:33;100762.31;;;35.87;22.02
60725;BME280;59881;36.722;-4.462;2023-04-28T09:40:05;100849.28;;;36.06;22.96
60725;BME280;59881;36.722;-4.462;2023-04-28T09:45:07;100842.31;;;38.79;20.66
60725;BME280;59881;36.722;-4.462;2023-04-28T09:47:34;100841.19;;;40.35;19.63
60725;BME280;59881;36.722;-4.462;2023-04-28T09:50:02;100852.75;;;40.89;19.00
60725;BME280;59881;36.722;-4.462;2023-04-28T09:52:28;100865.00;;;40.83;18.76
60725;BME280;59881;36.722;-4.462;2023-04-28T09:54:55;100779.13;;;40.32;18.94
60725;BME280;59881;36.722;-4.462;2023-04-28T09:57:22;100835.72;;;40.49;18.57
60725;BME280;59881;36.722;-4.462;2023-04-28T09:59:49;100871.03;;;40.09;19.86
60725;BME280;59881;36.722;-4.462;2023-04-28T10:02:16;100865.00;;;39.83;19.38
60725;BME280;59881;36.722;-4.462;2023-04-28T10:04:46;100876.75;;;39.11;20.47
60725;BME280;59881;36.722;-4.462;2023-04-28T10:07:14;100867.09;;;38.74;20.59
60725;BME280;59881;36.722;-4.462;2023-04-28T10:09:41;100875.00;;;38.86;20.81
60725;BME280;59881;36.722;-4.462;2023-04-28T10:12:15;100876.69;;;38.32;21.06
60725;BME280;59881;36.722;-4.462;2023-04-28T10:14:41;100881.28;;;38.47;21.27
60725;BME280;59881;36.722;-4.462;2023-04-28T10:17:07;100865.47;;;39.42;20.45
60725;BME280;59881;36.722;-4.462;2023-04-28T10:19:33;100746.13;;;39.17;19.99
60725;BME280;59881;36.722;-4.462;2023-04-28T10:25:35;100867.88;;;41.10;18.97
60725;BME280;59881;36.722;-4.462;2023-04-28T10:28:06;100838.09;;;41.68;18.27
60725;BME280;59881;36.722;-4.462;2023-04-28T10:30:32;100856.59;;;41.95;17.92
60725;BME280;59881;36.722;-4.462;2023-04-28T10:35:43;100864.38;;;40.53;18.53
60725;BME280;59881;36.722;-4.462;2023-04-28T10:38:13;100873.72;;;40.14;19.52
60725;BME280;59881;36.722;-4.462;2023-04-28T10:40:39;100870.84;;;38.88;20.30
60725;BME280;59881;36.722;-4.462;2023-04-28T10:43:13;100871.34;;;36.32;22.91
60725;BME280;59881;36.722;-4.462;2023-04-28T10:56:07;100885.50;;;30.37;30.05
60725;BME280;59881;36.722;-4.462;2023-04-28T10:58:33;100874.88;;;29.80;30.69
60725;BME280;59881;36.722;-4.462;2023-04-28T11:06:24;100876.22;;;28.82;31.84
60725;BME280;59881;36.722;-4.462;2023-04-28T11:08:57;100866.84;;;28.85;31.33
60725;BME280;59881;36.722;-4.462;2023-04-28T11:11:31;100814.50;;;28.53;31.00
60725;BME280;59881;36.722;-4.462;2023-04-28T11:16:52;100870.19;;;28.48;30.75
60725;BME280;59881;36.722;-4.462;2023-04-28T11:19:25;100890.38;;;28.46;31.21
60725;BME280;59881;36.722;-4.462;2023-04-28T11:21:52;100871.25;;;28.47;31.24
60725;BME280;59881;36.722;-4.462;2023-04-28T11:24:22;100878.97;;;28.37;30.36
60725;BME280;59881;36.722;-4.462;2023-04-28T11:26:50;100747.81;;;27.55;30.89
60725;BME280;59881;36.722;-4.462;2023-04-28T11:29:15;100745.72;;;27.63;30.86
60725;BME280;59881;36.722;-4.462;2023-04-28T11:31:48;100602.91;;;27.00;30.69
60725;BME280;59881;36.722;-4.462;2023-04-28T11:34:17;100860.66;;;28.71;30.81
60725;BME280;59881;36.722;-4.462;2023-04-28T11:36:43;100863.03;;;28.61;30.67
60725;BME280;59881;36.722;-4.462;2023-04-28T11:39:10;100865.44;;;28.31;30.86
60725;BME280;59881;36.722;-4.462;2023-04-28T11:41:39;100866.78;;;28.08;31.52
60725;BME280;59881;36.722;-4.462;2023-04-28T11:44:25;100812.53;;;27.50;32.45
60725;BME280;59881;36.722;-4.462;2023-04-28T11:46:53;100852.03;;;27.84;33.39
60725;BME280;59881;36.722;-4.462;2023-04-28T11:52:09;100848.28;;;28.43;32.45
60725;BME280;59881;36.722;-4.462;2023-04-28T11:54:35;100864.44;;;28.70;32.22
60725;BME280;59881;36.722;-4.462;2023-04-28T11:57:02;100841.06;;;28.69;32.30
60725;BME280;59881;36.722;-4.462;2023-04-28T11:59:33;100837.34;;;28.70;31.44
60725;BME280;59881;36.722;-4.462;2023-04-28T12:02:03;100808.69;;;28.49;31.32
60725;BME280;59881;36.722;-4.462;2023-04-28T12:04:31;100811.59;;;28.54;31.20
60725;BME280;59881;36.722;-4.462;2023-04-28T12:07:06;100829.00;;;28.72;31.49
60725;BME280;59881;36.722;-4.462;2023-04-28T12:09:35;100814.22;;;28.67;31.90
60725;BME280;59881;36.722;-4.462;2023-04-28T12:12:03;100834.63;;;28.70;32.20
60725;BME280;59881;36.722;-4.462;2023-04-28T12:14:30;100833.75;;;28.76;32.04
60725;BME280;59881;36.722;-4.462;2023-04-28T12:16:59;100774.06;;;28.51;32.34
60725;BME280;59881;36.722;-4.462;2023-04-28T12:19:26;100705.81;;;27.97;32.63
60725;BME280;59881;36.722;-4.462;2023-04-28T12:22:05;100715.34;;;28.06;32.05
60725;BME280;59881;36.722;-4.462;2023-04-28T12:24:32;100836.75;;;28.61;32.58
60725;BME280;59881;36.722;-4.462;2023-04-28T12:27:18;100805.00;;;28.30;32.95
60725;BME280;59881;36.722;-4.462;2023-04-28T12:29:49;100848.91;;;28.45;33.11
60725;BME280;59881;36.722;-4.462;2023-04-28T12:32:16;100834.94;;;28.48;32.99
60725;BME280;59881;36.722;-4.462;2023-04-28T12:34:44;100829.97;;;28.39;33.21
60725;BME280;59881;36.722;-4.462;2023-04-28T12:37:10;100796.38;;;28.08;33.30
60725;BME280;59881;36.722;-4.462;2023-04-28T12:39:38;100701.25;;;27.39;34.11
60725;BME280;59881;36.722;-4.462;2023-04-28T12:42:04;100749.28;;;27.51;34.60
60725;BME280;59881;36.722;-4.462;2023-04-28T12:44:37;100697.75;;;27.26;34.46
60725;BME280;59881;36.722;-4.462;2023-04-28T12:47:07;100805.38;;;27.82;34.33
60725;BME280;59881;36.722;-4.462;2023-04-28T12:49:36;100826.22;;;27.81;35.15
60725;BME280;59881;36.722;-4.462;2023-04-28T12:52:03;100825.78;;;27.91;34.87
60725;BME280;59881;36.722;-4.462;2023-04-28T12:54:29;100842.66;;;27.93;35.30
60725;BME280;59881;36.722;-4.462;2023-04-28T12:56:55;100837.47;;;27.65;35.28
60725;BME280;59881;36.722;-4.462;2023-04-28T12:59:21;100579.06;;;25.84;35.79
60725;BME280;59881;36.722;-4.462;2023-04-28T13:01:48;100833.97;;;27.44;35.87
60725;BME280;59881;36.722;-4.462;2023-04-28T13:04:15;100833.59;;;27.41;35.83
60725;BME280;59881;36.722;-4.462;2023-04-28T13:06:41;100838.13;;;27.47;35.97
60725;BME280;59881;36.722;-4.462;2023-04-28T13:09:10;100842.06;;;27.64;36.15